Time;durP1;ratioP1;P1;durP2;ratioP2;P2;SDS_P1;SDS_P2;PMS_P1;PMS_P2;Temp;Humidity;BMP_temperature;BMP_pressure;BME280_temperature;BME280_humidity;BME280_pressure;Samples;Min_cycle;Max_cycle;Signal;HPM_P1;HPM_P2
2023/03/25 00:01:14;;;;;;;0.67;0.30;;;10.50;99.90;;;;;;5004917;28;20339;-47
2023/03/25 00:03:45;;;;;;;0.30;0.30;;;10.60;99.90;;;;;;5020240;28;20581;-49
2023/03/25 00:06:13;;;;;;;0.10;0.10;;;10.60;99.90;;;;;;5015469;28;20556;-49
2023/03/25 00:08:40;;;;;;;0.87;0.20;;;10.70;99.90;;;;;;5020983;28;20204;-49
2023/03/25 00:11:08;;;;;;;0.87;0.20;;;10.60;99.90;;;;;;5015620;28;20238;-48
2023/03/25 00:13:36;;;;;;;0.70;0.20;;;10.50;99.90;;;;;;5021794;28;20210;-47
2023/03/25 00:16:05;;;;;;;0.30;0.30;;;10.50;99.90;;;;;;5015768;28;20213;-49
2023/03/25 00:18:33;;;;;;;0.83;0.30;;;10.50;99.90;;;;;;5025175;28;20201;-47
2023/03/25 00:21:02;;;;;;;0.40;0.30;;;10.50;99.90;;;;;;5033273;28;20758;-47
2023/03/25 00:23:30;;;;;;;1.13;0.20;;;10.40;99.90;;;;;;5033330;28;20225;-47
2023/03/25 00:25:59;;;;;;;3.17;0.50;;;10.30;99.90;;;;;;5025197;28;20204;-47
2023/03/25 00:28:29;;;;;;;2.43;0.23;;;10.20;99.90;;;;;;5024930;28;20232;-48
2023/03/25 00:31:01;;;;;;;2.47;0.33;;;10.10;99.90;;;;;;5033357;28;20249;-47
2023/03/25 00:33:30;;;;;;;1.63;0.40;;;10.20;99.90;;;;;;5026565;28;20258;-48
2023/03/25 00:35:58;;;;;;;1.97;0.30;;;10.20;99.90;;;;;;5018189;28;20202;-48
2023/03/25 00:38:32;;;;;;;1.03;0.50;;;10.10;99.90;;;;;;5017311;28;20288;-49
2023/03/25 00:41:05;;;;;;;1.07;0.40;;;10.10;99.90;;;;;;5013178;28;20214;-47
2023/03/25 00:43:32;;;;;;;1.30;1.03;;;10.10;99.90;;;;;;5027582;28;20214;-47
2023/03/25 00:46:01;;;;;;;0.57;0.57;;;10.00;99.90;;;;;;5019937;28;20205;-47
2023/03/25 00:48:28;;;;;;;0.97;0.40;;;10.00;99.90;;;;;;5010321;28;20225;-49
2023/03/25 00:50:55;;;;;;;2.07;0.30;;;10.00;99.90;;;;;;5018358;28;20316;-47
2023/03/25 00:53:22;;;;;;;0.73;0.40;;;9.90;99.90;;;;;;5024126;28;20209;-48
2023/03/25 00:55:49;;;;;;;2.87;0.50;;;9.80;99.90;;;;;;5020675;28;20210;-47
2023/03/25 00:58:16;;;;;;;2.27;0.40;;;9.90;99.90;;;;;;5010610;28;20197;-48
2023/03/25 01:00:43;;;;;;;1.70;0.37;;;9.80;99.90;;;;;;5009859;28;20229;-48
2023/03/25 01:03:12;;;;;;;1.20;0.40;;;9.80;99.90;;;;;;5012625;28;20671;-47
2023/03/25 01:05:40;;;;;;;0.93;0.40;;;9.70;99.90;;;;;;5011116;28;20215;-47
2023/03/25 01:08:07;;;;;;;2.53;0.50;;;9.70;99.90;;;;;;5025272;28;20230;-47
2023/03/25 01:10:35;;;;;;;0.30;0.30;;;9.60;99.90;;;;;;5010930;28;20643;-48
2023/03/25 01:13:04;;;;;;;0.80;0.50;;;9.50;99.90;;;;;;5024134;28;20243;-48
2023/03/25 01:15:31;;;;;;;1.30;0.27;;;9.50;99.90;;;;;;5031767;28;20258;-48
2023/03/25 01:18:00;;;;;;;2.57;0.60;;;9.40;99.90;;;;;;5016444;28;20201;-48
2023/03/25 01:20:29;;;;;;;1.50;0.40;;;9.40;99.90;;;;;;5020647;28;20265;-47
2023/03/25 01:22:59;;;;;;;0.57;0.30;;;9.40;99.90;;;;;;5023583;28;20246;-48
2023/03/25 01:25:26;;;;;;;1.60;0.57;;;9.40;99.90;;;;;;5008852;28;20197;-48
2023/03/25 01:27:53;;;;;;;1.10;0.50;;;9.40;99.90;;;;;;5023506;28;20245;-48
2023/03/25 01:30:20;;;;;;;0.87;0.40;;;9.40;99.90;;;;;;5032339;28;20289;-49
2023/03/25 01:32:47;;;;;;;1.07;0.73;;;9.40;99.90;;;;;;5012650;28;20202;-47
2023/03/25 01:35:14;;;;;;;2.27;0.40;;;9.60;99.90;;;;;;5011125;28;20216;-47
2023/03/25 01:37:45;;;;;;;0.60;0.40;;;9.70;99.90;;;;;;5019725;28;20621;-47
2023/03/25 01:40:18;;;;;;;0.50;0.40;;;9.60;99.90;;;;;;5007301;28;20239;-48
2023/03/25 01:42:45;;;;;;;2.13;0.47;;;9.60;99.90;;;;;;5018031;28;20560;-49
2023/03/25 01:45:19;;;;;;;1.40;0.27;;;9.60;99.90;;;;;;5015821;28;20200;-47
2023/03/25 01:47:48;;;;;;;0.20;0.20;;;9.60;99.90;;;;;;5011952;28;20235;-48
2023/03/25 01:50:16;;;;;;;0.10;0.10;;;9.50;99.90;;;;;;5010341;28;20309;-47
2023/03/25 01:52:49;;;;;;;0.07;0.07;;;9.40;99.90;;;;;;5009465;28;20197;-47
2023/03/25 01:55:19;;;;;;;0.10;0.10;;;9.20;99.90;;;;;;5013561;28;20205;-46
2023/03/25 01:57:47;;;;;;;0.10;0.10;;;9.10;99.90;;;;;;5019217;28;20205;-47
2023/03/25 02:00:16;;;;;;;0.10;0.00;;;9.00;99.90;;;;;;5009948;28;20610;-47
2023/03/25 02:02:44;;;;;;;0.10;0.10;;;9.00;99.90;;;;;;5009585;28;20342;-46
2023/03/25 02:05:17;;;;;;;0.93;0.00;;;9.00;99.90;;;;;;5021690;28;20211;-47
2023/03/25 02:07:48;;;;;;;1.30;0.10;;;9.00;99.90;;;;;;5019687;28;20231;-47
2023/03/25 02:10:16;;;;;;;0.00;0.00;;;8.90;99.90;;;;;;5014396;28;20659;-47
2023/03/25 02:12:44;;;;;;;0.30;0.17;;;8.80;99.90;;;;;;5009620;28;20204;-47
2023/03/25 02:15:13;;;;;;;0.13;0.10;;;8.70;99.90;;;;;;5011318;28;20279;-47
2023/03/25 02:18:05;;;;;;;1.70;0.10;;;8.70;99.90;;;;;;5011807;28;20203;-47
2023/03/25 02:21:07;;;;;;;1.20;0.40;;;8.60;99.90;;;;;;5001964;28;20285;-46
2023/03/25 02:24:08;;;;;;;2.00;0.63;;;8.40;99.90;;;;;;5011772;28;20205;-48
2023/03/25 02:27:00;;;;;;;0.53;0.10;;;8.20;99.90;;;;;;5011290;28;20209;-47
2023/03/25 02:29:47;;;;;;;1.57;0.10;;;8.00;99.90;;;;;;5021061;28;20201;-50
2023/03/25 02:32:29;;;;;;;0.23;0.10;;;7.90;99.90;;;;;;5019822;28;20739;-47
2023/03/25 02:35:17;;;;;;;0.93;0.27;;;7.90;99.90;;;;;;5017248;28;20205;-46
2023/03/25 02:38:08;;;;;;;2.20;0.10;;;7.90;99.90;;;;;;5014023;28;20204;-47
2023/03/25 02:40:42;;;;;;;1.03;0.10;;;7.90;99.90;;;;;;5015136;28;20224;-48
2023/03/25 02:43:13;;;;;;;0.23;0.10;;;7.90;99.90;;;;;;5004309;28;20208;-46
2023/03/25 02:45:45;;;;;;;1.80;0.10;;;7.70;99.90;;;;;;5019024;28;20263;-47
2023/03/25 02:48:16;;;;;;;0.53;0.10;;;7.70;99.90;;;;;;5010559;28;20722;-46
2023/03/25 02:50:46;;;;;;;0.27;0.10;;;7.60;99.90;;;;;;5020119;28;20651;-47
2023/03/25 02:53:21;;;;;;;0.60;0.20;;;7.50;99.90;;;;;;5017206;28;20204;-48
2023/03/25 02:55:49;;;;;;;2.87;0.10;;;7.50;99.90;;;;;;5020164;28;20635;-47
2023/03/25 02:58:20;;;;;;;0.00;0.00;;;7.50;99.90;;;;;;5015506;28;20659;-47
2023/03/25 03:00:49;;;;;;;0.60;0.10;;;7.40;99.90;;;;;;5017500;28;20759;-47
2023/03/25 03:03:15;;;;;;;0.10;0.00;;;7.40;99.90;;;;;;5005130;28;20209;-47
2023/03/25 03:05:45;;;;;;;0.50;0.20;;;7.40;99.90;;;;;;5011184;28;20203;-48
2023/03/25 03:08:43;;;;;;;0.63;0.10;;;7.50;99.90;;;;;;5011588;28;20224;-47
2023/03/25 03:11:15;;;;;;;0.37;0.00;;;7.50;99.90;;;;;;5005290;28;20228;-47
2023/03/25 03:14:08;;;;;;;0.80;0.00;;;7.50;99.90;;;;;;5015271;28;20216;-47
2023/03/25 03:16:44;;;;;;;0.00;0.00;;;7.50;99.90;;;;;;5024438;28;20670;-47
2023/03/25 03:19:26;;;;;;;0.00;0.00;;;7.50;99.90;;;;;;5012281;28;20616;-47
2023/03/25 03:21:59;;;;;;;0.27;0.23;;;7.60;99.90;;;;;;5030867;28;20335;-45
2023/03/25 03:24:32;;;;;;;0.43;0.00;;;7.60;99.90;;;;;;5017082;28;21318;-47
2023/03/25 03:27:06;;;;;;;0.00;0.00;;;7.60;99.90;;;;;;5006074;28;20198;-47
2023/03/25 03:29:37;;;;;;;0.00;0.00;;;7.60;99.90;;;;;;5010024;28;20200;-46
2023/03/25 03:32:10;;;;;;;0.10;0.00;;;7.60;99.90;;;;;;5018005;28;20273;-47
2023/03/25 03:34:45;;;;;;;0.23;0.00;;;7.60;99.90;;;;;;5024758;28;20211;-47
2023/03/25 03:37:15;;;;;;;0.00;0.00;;;7.70;99.90;;;;;;5016709;28;20700;-48
2023/03/25 03:39:46;;;;;;;0.00;0.00;;;7.70;99.90;;;;;;5013775;28;20201;-46
2023/03/25 03:42:18;;;;;;;0.10;0.10;;;7.70;99.90;;;;;;5019873;28;20258;-48
2023/03/25 03:44:50;;;;;;;0.10;0.00;;;7.70;99.90;;;;;;5021890;28;20209;-47
2023/03/25 03:47:21;;;;;;;0.00;0.00;;;7.90;99.90;;;;;;5012059;28;20207;-47
2023/03/25 03:49:53;;;;;;;0.50;0.00;;;7.80;99.90;;;;;;5015163;28;20267;-47
2023/03/25 03:52:25;;;;;;;0.00;0.00;;;7.80;99.90;;;;;;5023284;28;20204;-47
2023/03/25 03:54:57;;;;;;;0.00;0.00;;;7.80;99.90;;;;;;5012380;28;20206;-47
2023/03/25 03:57:30;;;;;;;0.00;0.00;;;7.80;99.90;;;;;;5019417;28;20204;-46
2023/03/25 04:00:04;;;;;;;0.93;0.10;;;7.80;99.90;;;;;;5021248;28;20232;-47
2023/03/25 04:02:38;;;;;;;2.00;0.00;;;7.70;99.90;;;;;;5016269;28;20205;-47
2023/03/25 04:05:07;;;;;;;0.00;0.00;;;7.70;99.90;;;;;;5011154;28;20292;-47
2023/03/25 04:07:39;;;;;;;1.30;0.10;;;7.80;99.90;;;;;;5022314;28;20232;-46
2023/03/25 04:10:13;;;;;;;0.53;0.10;;;7.70;99.90;;;;;;5015240;28;20244;-46
2023/03/25 04:12:44;;;;;;;0.63;0.10;;;7.70;99.90;;;;;;5030698;28;20216;-47
2023/03/25 04:15:12;;;;;;;0.93;0.10;;;7.80;99.90;;;;;;5024434;28;20204;-47
2023/03/25 04:17:39;;;;;;;0.37;0.10;;;7.90;99.90;;;;;;5020221;28;20199;-46
2023/03/25 04:20:10;;;;;;;0.97;0.07;;;7.60;99.90;;;;;;5021557;28;20221;-46
2023/03/25 04:22:37;;;;;;;0.23;0.10;;;7.30;99.90;;;;;;5030664;28;20273;-48
2023/03/25 04:25:07;;;;;;;0.93;0.00;;;7.10;99.90;;;;;;5021029;28;20201;-47
2023/03/25 04:27:36;;;;;;;0.00;0.00;;;7.00;99.90;;;;;;5021509;28;20201;-48
2023/03/25 04:30:04;;;;;;;0.00;0.00;;;7.00;99.90;;;;;;5013590;28;20264;-47
2023/03/25 04:32:31;;;;;;;0.07;0.07;;;7.00;99.90;;;;;;5020659;28;20257;-47
2023/03/25 04:34:58;;;;;;;0.37;0.20;;;6.80;99.90;;;;;;5017213;28;20640;-46
2023/03/25 04:37:26;;;;;;;0.00;0.00;;;6.70;99.90;;;;;;5032821;28;20209;-46
2023/03/25 04:39:54;;;;;;;0.20;0.00;;;6.70;99.90;;;;;;5033240;28;20205;-47
2023/03/25 04:42:24;;;;;;;0.00;0.00;;;6.60;99.90;;;;;;5016917;28;20203;-47
2023/03/25 04:44:51;;;;;;;0.87;0.00;;;6.50;99.90;;;;;;5016425;28;20667;-46
2023/03/25 04:47:23;;;;;;;0.60;0.00;;;6.60;99.90;;;;;;5026490;28;20197;-47
2023/03/25 04:49:50;;;;;;;3.43;0.10;;;6.50;99.90;;;;;;5032707;28;20549;-47
2023/03/25 04:52:17;;;;;;;0.10;0.00;;;6.50;99.90;;;;;;5033162;28;20209;-46
2023/03/25 04:54:45;;;;;;;0.00;0.00;;;6.50;99.90;;;;;;5033014;28;20211;-47
2023/03/25 04:57:12;;;;;;;0.20;0.00;;;6.50;99.90;;;;;;5021349;28;20210;-47
2023/03/25 04:59:40;;;;;;;0.30;0.00;;;6.50;99.90;;;;;;5013484;28;20739;-47
2023/03/25 05:02:11;;;;;;;0.10;0.10;;;6.40;99.90;;;;;;5032432;28;20221;-46
2023/03/25 05:04:41;;;;;;;0.00;0.00;;;6.50;99.90;;;;;;5026037;28;20204;-47
2023/03/25 05:07:08;;;;;;;0.00;0.00;;;6.40;99.90;;;;;;5020564;28;20200;-47
2023/03/25 05:09:36;;;;;;;0.00;0.00;;;6.50;99.90;;;;;;5018893;28;20223;-47
2023/03/25 05:12:03;;;;;;;0.00;0.00;;;6.40;99.90;;;;;;5018992;28;20224;-47
2023/03/25 05:14:29;;;;;;;0.00;0.00;;;6.40;99.90;;;;;;5011950;28;20331;-47
2023/03/25 05:16:59;;;;;;;0.00;0.00;;;6.40;99.90;;;;;;5019150;28;20331;-47
2023/03/25 05:19:27;;;;;;;0.30;0.00;;;6.40;99.90;;;;;;5016654;28;20195;-49
2023/03/25 05:21:55;;;;;;;0.00;0.00;;;6.40;99.90;;;;;;5032038;28;20274;-46
2023/03/25 05:24:22;;;;;;;0.10;0.10;;;6.30;99.90;;;;;;5032427;28;20406;-47
2023/03/25 05:26:49;;;;;;;0.40;0.00;;;6.30;99.90;;;;;;5031564;28;20621;-49
2023/03/25 05:29:16;;;;;;;0.00;0.00;;;6.30;99.90;;;;;;5016497;28;20226;-47
2023/03/25 05:31:45;;;;;;;0.00;0.00;;;6.20;99.90;;;;;;5011606;28;20233;-46
2023/03/25 05:34:15;;;;;;;0.00;0.00;;;6.20;99.90;;;;;;5011742;28;20207;-46
2023/03/25 05:36:42;;;;;;;0.00;0.00;;;6.10;99.90;;;;;;5019177;28;20205;-46
2023/03/25 05:39:10;;;;;;;0.00;0.00;;;6.10;99.90;;;;;;5032130;28;20206;-46
2023/03/25 05:41:38;;;;;;;0.00;0.00;;;6.10;99.90;;;;;;5022254;28;20712;-47
2023/03/25 05:44:06;;;;;;;0.37;0.37;;;6.00;99.90;;;;;;5012251;28;20292;-47
2023/03/25 05:46:33;;;;;;;0.50;0.50;;;6.00;99.90;;;;;;5019077;28;20210;-47
2023/03/25 05:49:00;;;;;;;0.10;0.10;;;5.90;99.90;;;;;;5023963;28;20287;-46
2023/03/25 05:51:32;;;;;;;0.10;0.10;;;6.00;99.90;;;;;;5016879;28;20243;-46
2023/03/25 05:54:00;;;;;;;0.10;0.10;;;5.90;99.90;;;;;;5010873;28;20206;-47
2023/03/25 05:56:27;;;;;;;0.33;0.00;;;5.90;99.90;;;;;;5019311;28;20204;-46
2023/03/25 05:58:55;;;;;;;0.00;0.00;;;5.80;99.90;;;;;;5023550;28;20250;-46
2023/03/25 06:01:22;;;;;;;0.00;0.00;;;5.70;99.90;;;;;;5027401;28;20216;-45
2023/03/25 06:03:49;;;;;;;0.40;0.00;;;5.60;99.90;;;;;;5009136;28;20227;-47
2023/03/25 06:06:18;;;;;;;0.00;0.00;;;5.70;99.90;;;;;;5016292;28;20204;-46
2023/03/25 06:08:48;;;;;;;0.00;0.00;;;5.70;99.90;;;;;;5016478;28;20225;-48
2023/03/25 06:11:16;;;;;;;0.10;0.03;;;5.70;99.90;;;;;;5029920;28;20232;-47
2023/03/25 06:13:48;;;;;;;0.00;0.00;;;5.70;99.90;;;;;;5028707;28;20676;-47
2023/03/25 06:16:19;;;;;;;0.10;0.10;;;5.80;99.90;;;;;;5011517;28;20205;-47
2023/03/25 06:18:49;;;;;;;0.00;0.00;;;5.80;99.90;;;;;;5011531;28;20201;-47
2023/03/25 06:21:17;;;;;;;0.47;0.00;;;5.80;99.90;;;;;;5005007;28;20220;-48
2023/03/25 06:23:46;;;;;;;0.60;0.10;;;5.90;99.90;;;;;;5020783;28;20232;-46
2023/03/25 06:26:14;;;;;;;0.10;0.10;;;6.00;99.90;;;;;;5015403;28;20212;-46
2023/03/25 06:28:41;;;;;;;1.57;0.10;;;6.00;99.90;;;;;;5015573;28;20228;-46
2023/03/25 06:31:12;;;;;;;0.00;0.00;;;6.00;99.90;;;;;;5017963;28;20230;-47
2023/03/25 06:33:40;;;;;;;1.80;0.10;;;6.00;99.90;;;;;;5016964;28;20208;-46
2023/03/25 06:36:08;;;;;;;0.00;0.00;;;6.00;99.90;;;;;;5011741;28;20203;-47
2023/03/25 06:38:35;;;;;;;0.00;0.00;;;6.00;99.90;;;;;;5011233;28;20679;-48
2023/03/25 06:41:03;;;;;;;0.20;0.00;;;6.00;99.90;;;;;;5011662;28;20290;-48
2023/03/25 06:43:30;;;;;;;0.23;0.10;;;6.00;99.90;;;;;;5008814;28;20341;-47
2023/03/25 06:45:58;;;;;;;0.10;0.10;;;6.10;99.90;;;;;;5016672;28;20202;-47
2023/03/25 06:48:25;;;;;;;0.10;0.10;;;6.10;99.90;;;;;;5032319;28;20219;-46
2023/03/25 06:50:53;;;;;;;0.20;0.20;;;6.10;99.90;;;;;;5004959;28;20225;-47
2023/03/25 06:53:20;;;;;;;0.30;0.13;;;6.10;99.90;;;;;;5005238;28;20212;-47
2023/03/25 06:55:47;;;;;;;0.50;0.20;;;6.20;99.90;;;;;;5015031;28;20260;-47
2023/03/25 06:58:16;;;;;;;0.57;0.50;;;6.30;99.90;;;;;;5019789;28;20206;-48
2023/03/25 07:00:43;;;;;;;0.90;0.87;;;6.40;99.90;;;;;;5025294;28;20274;-46
2023/03/25 07:03:11;;;;;;;0.30;0.30;;;6.50;99.90;;;;;;5029413;28;20765;-47
2023/03/25 07:05:38;;;;;;;0.30;0.30;;;6.60;99.90;;;;;;5002124;28;20199;-47
2023/03/25 07:08:05;;;;;;;0.87;0.20;;;6.70;99.90;;;;;;5015532;28;20268;-47
2023/03/25 07:10:32;;;;;;;1.60;0.50;;;6.70;99.90;;;;;;5009988;28;20349;-46
2023/03/25 07:13:02;;;;;;;0.40;0.40;;;6.80;99.90;;;;;;5009060;28;20250;-46
2023/03/25 07:15:31;;;;;;;0.10;0.10;;;6.70;99.90;;;;;;5008016;28;20201;-46
2023/03/25 07:18:01;;;;;;;0.17;0.17;;;6.80;99.90;;;;;;5022575;28;20197;-47
2023/03/25 07:20:28;;;;;;;0.77;0.77;;;6.80;99.90;;;;;;5018683;28;20696;-47
2023/03/25 07:22:55;;;;;;;0.80;0.80;;;6.90;99.90;;;;;;5010484;28;20211;-47
2023/03/25 07:25:23;;;;;;;0.20;0.20;;;7.00;99.90;;;;;;5010655;28;20255;-46
2023/03/25 07:27:50;;;;;;;0.20;0.20;;;7.00;99.90;;;;;;5006088;28;20667;-46
2023/03/25 07:30:17;;;;;;;0.10;0.10;;;7.00;99.90;;;;;;5018969;28;20224;-47
2023/03/25 07:32:46;;;;;;;0.17;0.17;;;7.10;99.90;;;;;;5013136;28;20209;-47
2023/03/25 07:35:13;;;;;;;1.13;0.20;;;7.20;99.90;;;;;;5027129;28;20216;-46
2023/03/25 07:37:40;;;;;;;0.20;0.10;;;7.30;99.90;;;;;;5012783;28;20199;-47
2023/03/25 07:40:08;;;;;;;1.03;0.20;;;7.30;99.90;;;;;;5004763;28;20221;-49
2023/03/25 07:42:37;;;;;;;0.53;0.20;;;7.30;99.90;;;;;;5008283;28;20569;-47
2023/03/25 07:45:04;;;;;;;0.13;0.13;;;7.30;99.90;;;;;;5010760;28;20296;-45
2023/03/25 07:47:32;;;;;;;0.33;0.03;;;7.20;99.90;;;;;;5020521;28;20295;-47
2023/03/25 07:50:00;;;;;;;0.10;0.10;;;7.20;99.90;;;;;;5012364;28;20221;-47
2023/03/25 07:52:27;;;;;;;0.10;0.10;;;7.30;99.90;;;;;;5106486;22;20702;-48
2023/03/25 07:54:54;;;;;;;1.17;0.13;;;7.20;99.90;;;;;;5092558;28;20258;-48
2023/03/25 07:57:21;;;;;;;0.10;0.10;;;7.10;99.90;;;;;;5092541;28;20194;-48
2023/03/25 07:59:48;;;;;;;0.47;0.20;;;7.10;99.90;;;;;;5091336;28;20203;-49
2023/03/25 08:02:16;;;;;;;0.20;0.20;;;7.10;99.90;;;;;;5091027;28;20226;-48
2023/03/25 08:04:42;;;;;;;0.20;0.20;;;7.30;99.90;;;;;;5092311;28;20264;-49
2023/03/25 08:07:11;;;;;;;0.30;0.17;;;7.50;99.90;;;;;;5091896;28;20338;-48
2023/03/25 08:09:38;;;;;;;0.30;0.30;;;7.90;99.90;;;;;;5092923;28;20219;-48
2023/03/25 08:12:05;;;;;;;1.03;1.03;;;8.20;99.90;;;;;;5077743;28;20218;-48
2023/03/25 08:14:32;;;;;;;0.20;0.20;;;8.30;99.90;;;;;;5091080;28;20202;-49
2023/03/25 08:16:59;;;;;;;0.30;0.30;;;8.40;99.90;;;;;;5091133;28;20243;-48
2023/03/25 08:19:26;;;;;;;0.20;0.20;;;8.60;99.90;;;;;;5091713;28;20244;-48
2023/03/25 08:21:53;;;;;;;0.20;0.20;;;9.10;99.90;;;;;;5086960;28;20226;-48
2023/03/25 08:24:23;;;;;;;0.20;0.20;;;9.50;99.90;;;;;;5091810;28;20230;-47
2023/03/25 08:26:50;;;;;;;0.20;0.20;;;10.10;99.90;;;;;;5089600;28;20622;-49
2023/03/25 08:29:18;;;;;;;0.97;0.27;;;10.30;99.90;;;;;;5088529;28;20565;-49
2023/03/25 08:31:51;;;;;;;0.80;0.30;;;10.00;99.90;;;;;;5090224;28;20587;-47
2023/03/25 08:34:18;;;;;;;0.20;0.20;;;9.80;99.90;;;;;;5089774;28;20241;-48
2023/03/25 08:36:46;;;;;;;0.80;0.47;;;9.70;99.90;;;;;;5088910;28;20203;-49
2023/03/25 08:39:16;;;;;;;1.70;0.43;;;9.60;99.90;;;;;;5090846;28;20289;-49
2023/03/25 08:41:44;;;;;;;0.30;0.30;;;9.50;99.90;;;;;;5088908;28;20237;-47
2023/03/25 08:44:11;;;;;;;0.20;0.10;;;9.20;99.90;;;;;;5089819;28;20346;-48
2023/03/25 08:46:39;;;;;;;1.13;0.20;;;9.20;99.90;;;;;;5087724;28;20262;-47
2023/03/25 08:49:06;;;;;;;0.10;0.10;;;9.30;99.90;;;;;;5087994;28;20222;-48
2023/03/25 08:51:33;;;;;;;0.00;0.00;;;9.40;99.90;;;;;;5088474;28;20229;-49
2023/03/25 08:54:00;;;;;;;1.03;0.40;;;9.80;99.90;;;;;;5088802;28;20572;-48
2023/03/25 08:56:27;;;;;;;0.40;0.20;;;10.10;99.90;;;;;;5087365;28;20313;-49
2023/03/25 08:58:56;;;;;;;0.67;0.20;;;10.20;99.90;;;;;;5087553;28;20646;-48
2023/03/25 09:01:23;;;;;;;0.33;0.20;;;10.10;99.90;;;;;;5088717;28;20283;-48
2023/03/25 09:03:50;;;;;;;0.20;0.20;;;9.90;99.90;;;;;;5089278;28;22161;-49
2023/03/25 09:06:17;;;;;;;0.10;0.10;;;9.60;99.90;;;;;;5089773;28;20260;-48
2023/03/25 09:08:44;;;;;;;0.10;0.10;;;9.40;99.90;;;;;;5089589;28;20675;-48
2023/03/25 09:11:11;;;;;;;0.27;0.27;;;9.20;99.90;;;;;;5071707;28;20708;-47
2023/03/25 09:13:38;;;;;;;2.40;0.20;;;9.00;99.90;;;;;;5090446;28;20206;-48
2023/03/25 09:16:08;;;;;;;0.30;0.30;;;8.90;99.90;;;;;;5090023;28;20194;-48
2023/03/25 09:18:35;;;;;;;0.40;0.40;;;8.70;99.90;;;;;;5089373;28;20202;-47
2023/03/25 09:21:02;;;;;;;0.33;0.10;;;8.70;99.90;;;;;;5090409;28;20221;-49
2023/03/25 09:23:29;;;;;;;0.10;0.10;;;8.70;99.90;;;;;;5090605;28;20253;-47
2023/03/25 09:26:00;;;;;;;0.10;0.10;;;8.80;99.90;;;;;;5090441;28;20255;-48
2023/03/25 09:28:27;;;;;;;0.20;0.10;;;8.80;99.90;;;;;;5090821;28;20671;-48
2023/03/25 09:30:55;;;;;;;0.20;0.20;;;8.80;99.90;;;;;;5089642;28;20218;-48
2023/03/25 09:33:23;;;;;;;0.20;0.20;;;8.90;99.90;;;;;;5089883;28;20311;-49
2023/03/25 09:35:50;;;;;;;0.97;0.20;;;9.30;99.90;;;;;;5083408;28;20202;-50
2023/03/25 09:38:17;;;;;;;0.43;0.20;;;10.20;99.90;;;;;;5087390;28;20202;-48
2023/03/25 09:40:45;;;;;;;0.10;0.10;;;11.10;99.90;;;;;;5091516;28;20587;-48
2023/03/25 09:43:29;;;;;;;0.10;0.10;;;11.50;99.90;;;;;;5090209;28;20206;-49
2023/03/25 09:45:58;;;;;;;0.97;0.30;;;11.90;99.90;;;;;;5089329;28;20209;-49
2023/03/25 09:48:32;;;;;;;0.30;0.20;;;12.70;99.90;;;;;;5091234;28;20203;-49
2023/03/25 09:51:03;;;;;;;0.20;0.20;;;13.20;99.90;;;;;;5090446;28;20223;-49
2023/03/25 09:53:36;;;;;;;0.10;0.10;;;13.60;99.90;;;;;;5091254;28;20341;-48
2023/03/25 09:56:06;;;;;;;0.10;0.10;;;13.80;99.90;;;;;;5089783;28;20208;-48
2023/03/25 09:58:40;;;;;;;0.20;0.10;;;13.50;99.90;;;;;;5090552;28;20204;-48
2023/03/25 10:01:21;;;;;;;0.10;0.10;;;12.90;99.90;;;;;;5091209;28;20222;-49
2023/03/25 10:03:59;;;;;;;1.87;0.30;;;12.60;99.90;;;;;;5090280;28;20260;-49
2023/03/25 10:06:26;;;;;;;0.47;0.10;;;12.40;99.90;;;;;;5089781;28;20276;-50
2023/03/25 10:09:21;;;;;;;0.60;0.60;;;12.20;99.90;;;;;;5090387;28;20195;-50
2023/03/25 10:11:58;;;;;;;2.63;1.33;;;11.90;99.90;;;;;;5091252;28;20591;-49
2023/03/25 10:14:28;;;;;;;0.30;0.30;;;11.50;99.90;;;;;;5091291;28;20721;-49
2023/03/25 10:17:09;;;;;;;1.87;1.33;;;11.20;99.90;;;;;;5089896;28;20200;-48
2023/03/25 10:19:49;;;;;;;0.30;0.30;;;11.00;99.90;;;;;;5091251;28;20195;-48
2023/03/25 10:22:22;;;;;;;0.20;0.20;;;10.70;99.90;;;;;;5095171;28;20267;-49
2023/03/25 10:24:53;;;;;;;0.50;0.20;;;10.50;99.90;;;;;;5092884;28;20205;-49
2023/03/25 10:27:25;;;;;;;1.03;0.10;;;10.40;99.90;;;;;;5093624;28;20245;-47
2023/03/25 10:29:57;;;;;;;2.90;0.30;;;10.70;99.90;;;;;;5095186;28;20275;-47
2023/03/25 10:32:32;;;;;;;0.27;0.10;;;10.80;99.90;;;;;;5095170;28;20295;-48
2023/03/25 10:35:04;;;;;;;0.10;0.10;;;11.10;99.90;;;;;;5094320;28;20717;-48
2023/03/25 10:37:35;;;;;;;1.53;0.40;;;11.70;99.90;;;;;;5092647;28;20281;-49
2023/03/25 10:40:17;;;;;;;0.40;0.20;;;12.80;99.90;;;;;;5085786;28;20538;-48
2023/03/25 10:42:56;;;;;;;0.97;0.10;;;14.10;99.90;;;;;;5092429;28;20218;-48
2023/03/25 10:45:23;;;;;;;0.23;0.23;;;14.50;99.90;;;;;;5093839;28;20576;-49
2023/03/25 10:47:52;;;;;;;2.10;0.20;;;15.00;99.90;;;;;;5093673;28;20290;-49
2023/03/25 10:50:21;;;;;;;0.47;0.47;;;15.20;99.90;;;;;;5093843;28;20224;-49
2023/03/25 10:52:50;;;;;;;0.70;0.20;;;14.60;99.90;;;;;;5094326;28;20208;-49
2023/03/25 10:55:24;;;;;;;0.07;0.07;;;13.60;99.90;;;;;;5094681;28;20265;-48
2023/03/25 10:57:51;;;;;;;2.77;1.63;;;13.20;99.90;;;;;;5092428;28;20206;-48
2023/03/25 11:00:19;;;;;;;0.30;0.30;;;12.70;99.90;;;;;;5094477;28;20691;-49
2023/03/25 11:02:47;;;;;;;1.47;0.10;;;12.50;99.90;;;;;;5094582;28;20205;-49
2023/03/25 11:05:18;;;;;;;0.17;0.17;;;12.60;99.90;;;;;;5094737;28;20262;-48
2023/03/25 11:07:50;;;;;;;0.00;0.00;;;12.90;99.90;;;;;;5093074;28;20237;-49
2023/03/25 11:10:21;;;;;;;0.10;0.03;;;13.30;99.90;;;;;;5094344;28;20245;-50
2023/03/25 11:12:50;;;;;;;0.30;0.30;;;13.60;99.90;;;;;;5093203;28;20203;-50
2023/03/25 11:15:21;;;;;;;0.97;0.80;;;13.60;99.90;;;;;;5093340;28;20211;-49
2023/03/25 11:17:56;;;;;;;0.20;0.10;;;13.30;99.90;;;;;;5093469;28;20741;-49
2023/03/25 11:20:28;;;;;;;0.60;0.10;;;13.20;99.90;;;;;;5094331;28;20204;-49
2023/03/25 11:23:04;;;;;;;0.20;0.20;;;13.30;99.90;;;;;;5092765;28;20669;-47
2023/03/25 11:25:36;;;;;;;0.20;0.00;;;13.50;99.90;;;;;;5090904;28;20207;-49
2023/03/25 11:28:10;;;;;;;0.00;0.00;;;13.30;99.90;;;;;;5084498;28;20554;-49
2023/03/25 11:30:37;;;;;;;0.10;0.10;;;13.40;99.90;;;;;;5093651;28;20208;-49
2023/03/25 11:33:06;;;;;;;0.20;0.10;;;13.40;99.90;;;;;;5093206;28;20261;-48
2023/03/25 11:35:38;;;;;;;0.37;0.10;;;13.40;99.90;;;;;;5093785;28;20250;-48
2023/03/25 11:38:15;;;;;;;0.20;0.20;;;12.90;99.90;;;;;;5092418;28;20197;-49
2023/03/25 11:40:53;;;;;;;0.20;0.10;;;12.90;99.90;;;;;;5093328;28;20220;-49
2023/03/25 11:43:22;;;;;;;0.00;0.00;;;12.90;99.90;;;;;;5090553;28;20842;-48
2023/03/25 11:45:49;;;;;;;0.10;0.10;;;13.10;99.90;;;;;;5098168;28;20665;-48
2023/03/25 11:48:19;;;;;;;0.00;0.00;;;13.30;99.90;;;;;;5095318;28;20210;-48
2023/03/25 11:50:51;;;;;;;0.00;0.00;;;13.20;99.90;;;;;;5105150;28;20219;-49
2023/03/25 11:53:21;;;;;;;0.25;0.10;;;12.80;99.90;;;;;;5092025;28;20527;-50
2023/03/25 11:55:52;;;;;;;0.07;0.07;;;12.60;99.90;;;;;;5093048;28;20282;-49
2023/03/25 11:58:22;;;;;;;0.10;0.10;;;12.60;99.90;;;;;;5092862;28;20706;-48
2023/03/25 12:00:52;;;;;;;0.00;0.00;;;12.70;99.90;;;;;;5092666;28;20206;-49
2023/03/25 12:03:21;;;;;;;0.00;0.00;;;13.10;99.90;;;;;;5093344;28;20683;-49
2023/03/25 12:06:00;;;;;;;0.10;0.10;;;13.60;99.90;;;;;;5093161;28;20299;-49
2023/03/25 12:08:40;;;;;;;1.43;0.10;;;13.80;99.90;;;;;;5092262;28;20210;-49
2023/03/25 12:11:11;;;;;;;0.70;0.07;;;13.80;99.90;;;;;;5091951;28;20279;-49
2023/03/25 12:13:51;;;;;;;0.03;0.00;;;13.70;99.90;;;;;;5092624;28;20703;-48
2023/03/25 12:16:29;;;;;;;0.20;0.03;;;13.60;99.90;;;;;;5087672;28;20264;-48
2023/03/25 12:19:05;;;;;;;0.17;0.10;;;13.80;99.90;;;;;;5092697;28;20192;-48
2023/03/25 12:21:50;;;;;;;0.10;0.10;;;14.00;99.90;;;;;;5093328;28;20224;-48
2023/03/25 12:24:32;;;;;;;0.10;0.10;;;13.80;99.90;;;;;;5073005;28;20200;-49
2023/03/25 12:27:14;;;;;;;1.60;0.40;;;13.60;99.90;;;;;;5072425;28;20672;-48
2023/03/25 12:29:47;;;;;;;0.40;0.40;;;13.90;99.90;;;;;;5079004;28;20197;-49
2023/03/25 12:32:28;;;;;;;0.30;0.30;;;14.10;99.90;;;;;;5092819;28;20249;-47
2023/03/25 12:35:08;;;;;;;0.60;0.57;;;14.20;99.90;;;;;;5093192;28;20190;-49
2023/03/25 12:37:44;;;;;;;0.70;0.27;;;13.90;99.90;;;;;;5092538;28;20305;-48
2023/03/25 12:40:30;;;;;;;0.10;0.10;;;14.00;99.90;;;;;;5072666;28;20256;-48
2023/03/25 12:43:06;;;;;;;0.27;0.27;;;13.90;99.90;;;;;;5072770;28;20204;-48
2023/03/25 12:45:49;;;;;;;0.60;0.43;;;13.90;99.90;;;;;;5081952;28;20216;-48
2023/03/25 12:48:29;;;;;;;0.17;0.10;;;13.80;99.90;;;;;;5091604;28;20623;-48
2023/03/25 12:51:05;;;;;;;0.10;0.10;;;13.70;99.90;;;;;;5091061;28;20284;-49
2023/03/25 12:53:45;;;;;;;0.17;0.10;;;13.90;99.90;;;;;;5091175;28;20577;-48
2023/03/25 12:56:27;;;;;;;0.33;0.10;;;14.30;99.90;;;;;;5091462;28;20196;-49
2023/03/25 12:59:16;;;;;;;0.20;0.10;;;14.50;99.90;;;;;;5091290;28;20200;-48
2023/03/25 13:01:53;;;;;;;0.10;0.10;;;14.70;99.90;;;;;;5047654;28;20223;-49
2023/03/25 13:04:44;;;;;;;0.10;0.00;;;14.40;99.90;;;;;;5090811;28;20600;-50
2023/03/25 13:07:15;;;;;;;0.10;0.10;;;14.20;99.90;;;;;;5090163;28;20666;-49
2023/03/25 13:09:53;;;;;;;0.43;0.10;;;14.30;99.90;;;;;;5091977;28;20199;-49
2023/03/25 13:12:30;;;;;;;1.10;0.20;;;14.50;99.90;;;;;;5091939;28;20689;-49